createdAt,value
2018-06-21T00:00:07.880Z,67.70
2018-06-21T00:02:37.151Z,67.90
2018-06-21T00:05:06.312Z,67.90
2018-06-21T00:07:36.576Z,68.00
2018-06-21T00:10:06.467Z,68.00
2018-06-21T00:12:36.194Z,68.20
2018-06-21T00:15:05.808Z,68.40
2018-06-21T00:17:36.791Z,68.30
2018-06-21T00:20:07.007Z,68.30
2018-06-21T00:22:37.297Z,68.50
2018-06-21T00:25:06.279Z,68.60
2018-06-21T00:27:35.167Z,68.60
2018-06-21T00:30:04.226Z,68.80
2018-06-21T00:32:32.821Z,68.80
2018-06-21T00:35:01.606Z,68.90
2018-06-21T00:37:30.780Z,68.90
2018-06-21T00:39:59.770Z,68.90
2018-06-21T00:42:28.710Z,68.90
2018-06-21T00:44:57.892Z,69.10
2018-06-21T00:47:27.513Z,69.00
2018-06-21T00:49:56.424Z,69.70
2018-06-21T00:52:25.329Z,69.00
2018-06-21T00:54:54.400Z,69.10
2018-06-21T00:57:23.411Z,68.90
2018-06-21T00:59:52.612Z,68.70
2018-06-21T01:02:21.568Z,68.30
2018-06-21T01:04:51.034Z,67.90
2018-06-21T01:07:20.173Z,67.50
2018-06-21T01:09:49.283Z,67.70
2018-06-21T01:12:23.846Z,67.70
2018-06-21T01:14:54.965Z,67.50
2018-06-21T01:17:23.974Z,67.80
2018-06-21T01:19:52.960Z,67.90
2018-06-21T01:22:22.342Z,67.90
2018-06-21T01:24:51.629Z,68.10
2018-06-21T01:27:21.149Z,68.30
2018-06-21T01:29:50.184Z,68.00
2018-06-21T01:32:19.961Z,67.90
2018-06-21T01:34:48.934Z,68.00
2018-06-21T01:37:17.919Z,67.80
2018-06-21T01:39:47.090Z,67.60
2018-06-21T01:42:16.076Z,67.50
2018-06-21T01:44:45.310Z,67.60
2018-06-21T01:47:14.116Z,67.80
2018-06-21T01:49:43.192Z,67.60
2018-06-21T01:52:11.884Z,67.50
2018-06-21T01:54:40.517Z,67.30
2018-06-21T01:57:09.024Z,67.20
2018-06-21T01:59:37.736Z,67.10
2018-06-21T02:02:06.798Z,67.30
2018-06-21T02:04:35.618Z,67.20
2018-06-21T02:07:04.703Z,67.10
2018-06-21T02:09:33.722Z,67.20
2018-06-21T02:12:02.656Z,67.30
2018-06-21T02:14:31.483Z,67.40
2018-06-21T02:17:00.234Z,67.60
2018-06-21T02:19:29.080Z,67.90
2018-06-21T02:21:58.038Z,67.90
2018-06-21T02:24:28.495Z,68.10
2018-06-21T02:26:57.286Z,68.30
2018-06-21T02:29:26.194Z,68.30
2018-06-21T02:31:56.872Z,68.40
2018-06-21T02:34:25.509Z,68.70
2018-06-21T02:36:54.323Z,68.70
2018-06-21T02:39:23.208Z,68.80
2018-06-21T02:41:51.901Z,68.70
2018-06-21T02:44:20.573Z,68.90
2018-06-21T02:49:17.760Z,69.10
2018-06-21T02:51:46.663Z,69.10
2018-06-21T02:54:15.839Z,69.50
2018-06-21T02:56:45.910Z,69.90
2018-06-21T02:59:14.757Z,70.00
2018-06-21T03:01:44.058Z,70.30
2018-06-21T03:04:13.219Z,70.60
2018-06-21T03:06:41.903Z,71.00
2018-06-21T03:09:11.022Z,71.30
2018-06-21T03:11:40.322Z,71.60
2018-06-21T03:14:09.052Z,71.90
2018-06-21T03:16:37.708Z,71.90
2018-06-21T03:19:07.101Z,71.80
2018-06-21T03:21:36.573Z,71.90
2018-06-21T03:24:05.378Z,71.80
2018-06-21T03:26:34.433Z,71.90
2018-06-21T03:29:03.126Z,72.00
2018-06-21T03:31:31.763Z,72.20
2018-06-21T03:34:00.555Z,72.40
2018-06-21T03:36:29.087Z,72.30
2018-06-21T03:38:57.704Z,72.30
2018-06-21T03:41:26.255Z,72.40
2018-06-21T03:43:55.196Z,72.50
2018-06-21T03:46:23.639Z,72.50
2018-06-21T03:48:52.060Z,72.60
2018-06-21T03:51:20.534Z,72.80
2018-06-21T03:53:49.064Z,73.00
2018-06-21T03:56:17.586Z,73.20
2018-06-21T03:58:46.113Z,73.60
2018-06-21T04:01:14.729Z,73.90
2018-06-21T04:03:43.345Z,74.30
2018-06-21T04:06:11.980Z,74.40
2018-06-21T04:08:40.593Z,74.60
2018-06-21T04:11:09.861Z,74.80
2018-06-21T04:13:38.431Z,75.00
2018-06-21T04:16:06.967Z,75.00
2018-06-21T04:18:36.997Z,75.00
2018-06-21T04:21:07.299Z,75.00
2018-06-21T04:23:36.879Z,75.00
2018-06-21T04:28:33.682Z,75.00
2018-06-21T04:31:02.179Z,75.00
2018-06-21T04:33:31.052Z,75.20
2018-06-21T04:35:59.703Z,75.30
2018-06-21T04:40:56.500Z,75.60
2018-06-21T04:43:25.017Z,75.50
2018-06-21T04:45:53.658Z,75.60
2018-06-21T04:48:22.100Z,75.80
2018-06-21T04:50:50.689Z,75.80
2018-06-21T04:53:19.191Z,76.00
2018-06-21T04:55:47.912Z,76.40
2018-06-21T04:58:16.571Z,76.70
2018-06-21T05:00:45.354Z,76.90
2018-06-21T05:03:13.854Z,77.10
2018-06-21T05:05:42.623Z,77.20
2018-06-21T05:08:11.321Z,78.20
2018-06-21T05:10:39.814Z,77.50
2018-06-21T05:13:08.440Z,77.50
2018-06-21T05:18:05.149Z,78.00
2018-06-21T05:20:33.637Z,78.10
2018-06-21T05:24:21.269Z,78.40
2018-06-21T05:26:49.800Z,78.60
2018-06-21T05:29:18.280Z,80.20
2018-06-21T05:31:47.155Z,81.20
2018-06-21T05:34:16.119Z,81.60
2018-06-21T05:36:44.720Z,82.10
2018-06-21T05:39:13.769Z,82.40
2018-06-21T05:41:42.993Z,82.80
2018-06-21T05:44:11.660Z,83.20
2018-06-21T05:46:40.238Z,83.20
2018-06-21T05:49:08.831Z,83.80
2018-06-21T05:51:37.435Z,84.40
2018-06-21T05:54:06.708Z,85.40
2018-06-21T05:56:35.271Z,85.60
2018-06-21T05:59:04.197Z,85.80
2018-06-21T06:01:33.940Z,85.20
2018-06-21T06:04:02.751Z,84.70
2018-06-21T06:06:31.745Z,85.10
2018-06-21T06:09:01.493Z,86.00
2018-06-21T06:11:30.417Z,85.80
2018-06-21T06:13:59.360Z,85.70
2018-06-21T06:16:28.461Z,85.50
2018-06-21T06:18:57.888Z,84.30
2018-06-21T06:21:26.922Z,84.10
2018-06-21T06:23:56.337Z,83.60
2018-06-21T06:26:25.999Z,83.90
2018-06-21T06:28:55.236Z,84.00
2018-06-21T06:31:24.266Z,81.50
2018-06-21T06:33:54.280Z,81.20
2018-06-21T06:36:24.101Z,80.20
2018-06-21T06:38:53.293Z,79.20
2018-06-21T06:41:21.997Z,79.60
2018-06-21T06:43:50.842Z,79.90
2018-06-21T06:46:20.103Z,80.00
2018-06-21T06:48:49.210Z,80.00
2018-06-21T06:51:18.708Z,79.90
2018-06-21T06:53:47.469Z,80.70
2018-06-21T06:56:16.261Z,81.00
2018-06-21T06:58:45.032Z,81.90
2018-06-21T07:01:13.625Z,80.90
2018-06-21T07:03:42.262Z,81.10
2018-06-21T07:06:10.891Z,81.00
2018-06-21T07:08:39.754Z,81.40
2018-06-21T07:11:08.559Z,81.40
2018-06-21T07:13:37.149Z,81.20
2018-06-21T07:16:06.289Z,81.10
2018-06-21T07:18:35.309Z,80.40
2018-06-21T07:21:03.880Z,80.10
2018-06-21T07:23:33.098Z,80.70
2018-06-21T07:26:01.585Z,80.90
2018-06-21T07:28:30.166Z,81.50
2018-06-21T07:30:58.723Z,81.00
2018-06-21T07:33:27.345Z,80.80
2018-06-21T07:35:56.284Z,80.60
2018-06-21T07:38:24.771Z,79.30
2018-06-21T07:40:53.273Z,78.40
2018-06-21T07:43:21.795Z,77.60
2018-06-21T07:45:50.387Z,78.30
2018-06-21T07:48:18.907Z,77.90
2018-06-21T07:50:48.001Z,76.40
2018-06-21T07:53:16.714Z,75.90
2018-06-21T07:55:45.375Z,76.60
2018-06-21T07:58:14.043Z,75.90
2018-06-21T08:03:11.186Z,75.70
2018-06-21T08:05:39.728Z,75.30
2018-06-21T08:08:08.439Z,76.00
2018-06-21T08:10:37.017Z,76.00
2018-06-21T08:13:05.465Z,77.00
2018-06-21T08:15:34.007Z,76.10
2018-06-21T08:20:31.930Z,75.50
2018-06-21T08:23:00.887Z,75.30
2018-06-21T08:25:29.575Z,75.80
2018-06-21T08:27:59.415Z,75.00
2018-06-21T08:30:28.420Z,74.40
2018-06-21T08:32:57.828Z,74.00
2018-06-21T08:35:27.142Z,73.80
2018-06-21T08:37:55.979Z,73.10
2018-06-21T08:40:24.727Z,73.30
2018-06-21T08:42:53.698Z,73.10
2018-06-21T08:45:22.260Z,72.00
2018-06-21T08:47:51.647Z,71.70
2018-06-21T08:50:20.460Z,71.80
2018-06-21T08:52:49.351Z,72.20
2018-06-21T08:55:18.392Z,72.00
2018-06-21T08:57:47.064Z,71.40
2018-06-21T09:00:16.634Z,70.10
2018-06-21T09:02:45.670Z,70.60
2018-06-21T09:05:14.272Z,69.70
2018-06-21T09:07:43.493Z,69.70
2018-06-21T09:10:12.090Z,69.10
2018-06-21T09:12:40.904Z,66.50
2018-06-21T09:15:10.867Z,67.20
2018-06-21T09:17:39.553Z,65.60
2018-06-21T09:20:08.347Z,62.80
2018-06-21T09:22:37.376Z,63.50
2018-06-21T09:25:05.966Z,63.80
2018-06-21T09:27:34.583Z,63.30
2018-06-21T09:30:03.396Z,61.60
2018-06-21T09:32:31.989Z,60.80
2018-06-21T09:35:00.777Z,61.10
2018-06-21T09:37:34.705Z,61.90
2018-06-21T09:40:09.489Z,62.00
2018-06-21T09:42:44.432Z,60.90
2018-06-21T09:45:17.313Z,60.70
2018-06-21T09:47:51.227Z,62.20
2018-06-21T09:50:20.242Z,63.60
2018-06-21T09:55:14.477Z,64.70
2018-06-21T09:57:43.115Z,63.90
2018-06-21T10:00:16.015Z,63.30
2018-06-21T10:02:44.525Z,63.60
2018-06-21T10:05:13.163Z,62.90
2018-06-21T10:07:42.385Z,63.80
2018-06-21T10:10:11.542Z,62.10
2018-06-21T10:12:43.487Z,60.60
2018-06-21T10:15:12.000Z,60.60
2018-06-21T10:17:40.608Z,58.70
2018-06-21T10:20:09.084Z,59.70
2018-06-21T10:22:37.637Z,57.70
2018-06-21T10:25:06.138Z,55.60
2018-06-21T10:27:36.631Z,55.30
2018-06-21T10:30:05.321Z,55.00
2018-06-21T10:32:33.822Z,55.60
2018-06-21T10:35:02.236Z,54.40
2018-06-21T10:37:30.755Z,54.50
2018-06-21T10:39:59.314Z,53.70
2018-06-21T10:42:27.759Z,51.70
2018-06-21T10:44:56.336Z,49.50
2018-06-21T10:47:24.827Z,49.20
2018-06-21T10:49:53.386Z,50.20
2018-06-21T10:52:21.962Z,49.60
2018-06-21T10:54:50.432Z,49.10
2018-06-21T10:57:18.939Z,48.40
2018-06-21T11:01:06.827Z,48.20
2018-06-21T11:03:35.792Z,44.60
2018-06-21T11:06:04.370Z,43.60
2018-06-21T11:08:35.961Z,43.50
2018-06-21T11:11:04.603Z,44.10
2018-06-21T11:13:33.203Z,43.50
2018-06-21T11:16:01.848Z,41.20
2018-06-21T11:18:30.471Z,42.80
2018-06-21T11:20:59.034Z,43.90
2018-06-21T11:23:27.739Z,43.70
2018-06-21T11:25:56.233Z,43.20
2018-06-21T11:28:25.788Z,44.20
2018-06-21T11:30:54.447Z,42.80
2018-06-21T11:33:23.141Z,46.30
2018-06-21T11:35:51.828Z,44.40
2018-06-21T11:38:20.295Z,42.30
2018-06-21T11:40:48.940Z,42.30
2018-06-21T11:43:17.375Z,43.30
2018-06-21T11:45:46.198Z,42.10
2018-06-21T11:48:14.894Z,43.00
2018-06-21T11:50:43.545Z,42.30
2018-06-21T11:53:12.033Z,43.10
2018-06-21T11:55:40.571Z,43.10
2018-06-21T11:58:09.151Z,40.90
2018-06-21T12:00:38.013Z,40.20
2018-06-21T12:03:06.486Z,41.30
2018-06-21T12:05:35.032Z,41.50
2018-06-21T12:08:03.570Z,41.80
2018-06-21T12:10:32.100Z,38.50
2018-06-21T12:15:29.421Z,39.50
2018-06-21T12:17:58.019Z,38.80
2018-06-21T12:20:27.488Z,39.60
2018-06-21T12:22:56.161Z,39.80
2018-06-21T12:25:25.299Z,39.40
2018-06-21T12:27:54.093Z,39.10
2018-06-21T12:30:23.298Z,37.80
2018-06-21T12:32:52.941Z,38.40
2018-06-21T12:35:22.203Z,37.90
2018-06-21T12:37:51.767Z,39.60
2018-06-21T12:40:20.627Z,35.60
2018-06-21T12:42:49.696Z,35.10
2018-06-21T12:45:18.664Z,34.50
2018-06-21T12:47:47.894Z,35.60
2018-06-21T12:50:17.793Z,33.30
2018-06-21T12:55:15.313Z,34.10
2018-06-21T12:57:44.377Z,35.00
2018-06-21T13:00:13.101Z,35.90
2018-06-21T13:02:43.273Z,34.30
2018-06-21T13:05:12.642Z,34.40
2018-06-21T13:07:42.219Z,36.20
2018-06-21T13:10:22.412Z,33.20
2018-06-21T13:13:09.587Z,33.30
2018-06-21T13:15:39.436Z,34.40
2018-06-21T13:18:08.632Z,35.20
2018-06-21T13:20:37.843Z,34.40
2018-06-21T13:23:06.474Z,34.60
2018-06-21T13:25:34.951Z,33.70
2018-06-21T13:28:03.605Z,31.20
2018-06-21T13:30:32.060Z,32.50
2018-06-21T13:33:00.881Z,32.10
2018-06-21T13:35:29.682Z,34.60
2018-06-21T13:37:58.344Z,34.60
2018-06-21T13:40:26.955Z,34.60
2018-06-21T13:42:57.137Z,33.90
2018-06-21T13:45:26.331Z,35.50
2018-06-21T13:47:55.753Z,36.60
2018-06-21T13:50:24.933Z,36.70
2018-06-21T13:52:54.159Z,36.00
2018-06-21T13:55:23.904Z,35.50
2018-06-21T13:57:53.391Z,34.40
2018-06-21T14:00:22.563Z,34.60
2018-06-21T14:02:50.925Z,34.30
2018-06-21T14:05:20.256Z,34.60
2018-06-21T14:10:17.862Z,35.10
2018-06-21T14:12:47.511Z,37.20
2018-06-21T14:15:16.064Z,38.00
2018-06-21T14:17:44.576Z,36.50
2018-06-21T14:20:13.177Z,37.10
2018-06-21T14:22:41.694Z,38.60
2018-06-21T14:25:10.320Z,38.30
2018-06-21T14:27:38.778Z,36.80
2018-06-21T14:30:07.345Z,37.10
2018-06-21T14:32:35.785Z,36.00
2018-06-21T14:37:32.375Z,36.60
2018-06-21T14:40:01.011Z,37.00
2018-06-21T14:42:29.551Z,37.00
2018-06-21T14:44:58.192Z,37.10
2018-06-21T14:47:26.796Z,37.60
2018-06-21T14:49:55.230Z,37.40
2018-06-21T14:52:23.707Z,38.50
2018-06-21T14:54:52.299Z,39.40
2018-06-21T14:57:20.729Z,39.90
2018-06-21T14:59:49.131Z,40.80
2018-06-21T15:02:17.668Z,41.40
2018-06-21T15:04:46.094Z,41.60
2018-06-21T15:07:14.635Z,40.90
2018-06-21T15:09:43.081Z,41.10
2018-06-21T15:12:11.745Z,42.30
2018-06-21T15:14:40.204Z,43.50
2018-06-21T15:17:08.641Z,43.00
2018-06-21T15:19:37.296Z,43.40
2018-06-21T15:22:05.792Z,44.70
2018-06-21T15:24:34.190Z,45.20
2018-06-21T15:27:03.005Z,45.90
2018-06-21T15:29:31.544Z,45.20
2018-06-21T15:32:00.127Z,45.80
2018-06-21T15:34:28.632Z,46.20
2018-06-21T15:36:57.201Z,45.20
2018-06-21T15:39:25.603Z,45.20
2018-06-21T15:41:54.044Z,46.10
2018-06-21T15:44:22.727Z,46.40
2018-06-21T15:46:52.305Z,45.80
2018-06-21T15:49:20.886Z,44.70
2018-06-21T15:51:49.331Z,44.80
2018-06-21T15:54:18.079Z,43.90
2018-06-21T15:56:46.965Z,43.70
2018-06-21T15:59:16.597Z,42.90
2018-06-21T16:01:45.223Z,42.50
2018-06-21T16:04:13.883Z,43.50
2018-06-21T16:06:42.447Z,44.10
2018-06-21T16:09:11.461Z,44.50
2018-06-21T16:11:40.437Z,44.00
2018-06-21T16:14:09.046Z,45.30
2018-06-21T16:16:37.594Z,46.00
2018-06-21T16:19:06.192Z,45.50
2018-06-21T16:21:34.834Z,44.40
2018-06-21T16:24:03.450Z,43.30
2018-06-21T16:26:32.008Z,44.30
2018-06-21T16:29:00.853Z,43.10
2018-06-21T16:31:29.501Z,43.90
2018-06-21T16:33:59.261Z,43.70
2018-06-21T16:36:28.060Z,43.50
2018-06-21T16:38:57.308Z,44.40
2018-06-21T16:41:26.856Z,44.30
2018-06-21T16:46:26.319Z,44.40
2018-06-21T16:51:23.202Z,48.40
2018-06-21T16:53:52.678Z,50.10
2018-06-21T16:56:21.687Z,50.30
2018-06-21T16:58:50.615Z,50.90
2018-06-21T17:01:19.633Z,50.20
2018-06-21T17:03:48.579Z,50.10
2018-06-21T17:06:17.738Z,48.70
2018-06-21T17:08:46.229Z,48.40
2018-06-21T17:11:14.767Z,49.00
2018-06-21T17:13:44.453Z,48.70
2018-06-21T17:16:13.559Z,47.80
2018-06-21T17:18:42.281Z,48.60
2018-06-21T17:21:11.069Z,49.00
2018-06-21T17:23:40.168Z,48.80
2018-06-21T17:26:08.824Z,49.20
2018-06-21T17:28:37.705Z,48.80
2018-06-21T17:31:07.096Z,49.40
2018-06-21T17:33:35.990Z,49.90
2018-06-21T17:36:05.061Z,49.70
2018-06-21T17:38:34.217Z,49.50
2018-06-21T17:41:03.158Z,49.50
2018-06-21T17:43:31.999Z,49.50
2018-06-21T17:46:01.077Z,49.60
2018-06-21T17:48:29.817Z,49.30
2018-06-21T17:50:59.019Z,49.80
2018-06-21T17:53:27.938Z,49.80
2018-06-21T17:55:56.873Z,50.00
2018-06-21T17:58:25.624Z,50.40
2018-06-21T18:00:54.441Z,50.50
2018-06-21T18:03:23.506Z,48.90
2018-06-21T18:05:54.027Z,48.10
2018-06-21T18:08:23.655Z,47.40
2018-06-21T18:10:52.983Z,47.20
2018-06-21T18:13:22.136Z,47.70
2018-06-21T18:15:52.228Z,46.90
2018-06-21T18:18:22.008Z,47.30
2018-06-21T18:20:52.174Z,46.70
2018-06-21T18:23:21.044Z,45.40
2018-06-21T18:25:50.195Z,45.00
2018-06-21T18:28:19.279Z,45.70
2018-06-21T18:30:50.048Z,46.20
2018-06-21T18:33:19.623Z,46.50
2018-06-21T18:35:48.807Z,46.80
2018-06-21T18:38:18.378Z,47.70
2018-06-21T18:40:48.129Z,47.80
2018-06-21T18:43:17.115Z,48.20
2018-06-21T18:45:46.452Z,48.80
2018-06-21T18:48:16.142Z,48.30
2018-06-21T18:50:45.170Z,48.70
2018-06-21T18:53:13.644Z,48.70
2018-06-21T18:55:42.628Z,48.80
2018-06-21T18:58:11.419Z,49.30
2018-06-21T19:00:40.276Z,49.50
2018-06-21T19:03:09.081Z,49.80
2018-06-21T19:05:37.898Z,49.90
2018-06-21T19:10:45.482Z,50.70
2018-06-21T19:13:14.480Z,50.80
2018-06-21T19:15:43.299Z,51.20
2018-06-21T19:18:11.996Z,51.80
2018-06-21T19:20:40.567Z,51.60
2018-06-21T19:23:09.370Z,52.00
2018-06-21T19:25:38.957Z,52.00
2018-06-21T19:30:36.616Z,52.00
2018-06-21T19:33:05.277Z,51.10
2018-06-21T19:35:33.967Z,51.00
2018-06-21T19:38:02.992Z,51.80
2018-06-21T19:40:31.785Z,52.50
2018-06-21T19:43:00.238Z,52.10
2018-06-21T19:45:29.759Z,52.70
2018-06-21T19:50:26.819Z,53.20
2018-06-21T19:55:23.654Z,54.20
2018-06-21T19:57:52.368Z,54.20
2018-06-21T20:00:21.075Z,54.40
2018-06-21T20:02:54.891Z,54.50
2018-06-21T20:05:23.854Z,54.80
2018-06-21T20:07:52.493Z,55.20
2018-06-21T20:10:21.054Z,55.10
2018-06-21T20:12:49.614Z,55.20
2018-06-21T20:15:18.244Z,55.00
2018-06-21T20:17:47.092Z,55.20
2018-06-21T20:20:21.235Z,55.40
2018-06-21T20:22:49.836Z,55.70
2018-06-21T20:25:18.893Z,56.10
2018-06-21T20:27:47.890Z,55.80
2018-06-21T20:30:16.659Z,56.00
2018-06-21T20:32:45.321Z,56.00
2018-06-21T20:35:14.265Z,56.20
2018-06-21T20:37:43.036Z,56.50
2018-06-21T20:40:11.863Z,56.60
2018-06-21T20:42:40.953Z,56.80
2018-06-21T20:45:09.870Z,57.00
2018-06-21T20:47:38.537Z,57.20
2018-06-21T20:50:07.320Z,57.20
2018-06-21T20:52:36.064Z,57.40
2018-06-21T20:55:04.717Z,57.60
2018-06-21T20:57:33.244Z,57.70
2018-06-21T21:00:02.168Z,57.80
2018-06-21T21:02:31.085Z,58.30
2018-06-21T21:05:08.793Z,58.40
2018-06-21T21:07:37.624Z,58.10
2018-06-21T21:10:10.292Z,58.50
2018-06-21T21:12:39.116Z,58.70
2018-06-21T21:15:09.010Z,59.50
2018-06-21T21:17:38.515Z,59.00
2018-06-21T21:20:07.909Z,59.20
2018-06-21T21:22:37.615Z,59.50
2018-06-21T21:25:06.610Z,59.50
2018-06-21T21:27:35.443Z,59.80
2018-06-21T21:32:33.510Z,60.20
2018-06-21T21:35:02.445Z,60.20
2018-06-21T21:40:07.247Z,60.10
2018-06-21T21:42:37.398Z,60.10
2018-06-21T21:45:06.290Z,60.10
2018-06-21T21:47:34.795Z,60.30
2018-06-21T21:50:03.449Z,60.20
2018-06-21T21:55:00.694Z,60.50
2018-06-21T21:57:29.409Z,60.50
2018-06-21T21:59:58.064Z,60.50
2018-06-21T22:02:26.612Z,59.90
2018-06-21T22:04:55.081Z,60.10
2018-06-21T22:07:23.601Z,60.00
2018-06-21T22:09:52.043Z,60.00
2018-06-21T22:12:20.554Z,60.30
2018-06-21T22:14:49.029Z,60.80
2018-06-21T22:17:17.427Z,61.20
2018-06-21T22:19:46.113Z,61.50
2018-06-21T22:22:14.729Z,61.80
2018-06-21T22:24:43.183Z,61.90
2018-06-21T22:27:11.955Z,61.90
2018-06-21T22:29:40.449Z,61.70
2018-06-21T22:32:09.144Z,61.50
2018-06-21T22:34:37.716Z,61.40
2018-06-21T22:37:07.430Z,61.60
2018-06-21T22:39:36.121Z,61.30
2018-06-21T22:42:04.909Z,61.40
2018-06-21T22:44:33.601Z,61.10
2018-06-21T22:47:02.080Z,61.60
2018-06-21T22:49:30.574Z,61.10
2018-06-21T22:51:59.038Z,61.00
2018-06-21T22:56:56.120Z,60.50
2018-06-21T22:59:24.706Z,60.50
2018-06-21T23:01:53.387Z,60.70
2018-06-21T23:04:21.976Z,60.80
2018-06-21T23:06:50.480Z,60.80
2018-06-21T23:09:19.133Z,61.20
2018-06-21T23:11:48.010Z,61.10
2018-06-21T23:14:16.648Z,61.40
2018-06-21T23:16:45.310Z,61.90
2018-06-21T23:19:26.610Z,62.20
2018-06-21T23:21:55.610Z,62.10
2018-06-21T23:24:25.067Z,62.40
2018-06-21T23:26:54.183Z,63.00
2018-06-21T23:29:23.206Z,62.60
2018-06-21T23:31:52.051Z,63.30
2018-06-21T23:34:21.433Z,63.10
2018-06-21T23:36:50.908Z,63.30
2018-06-21T23:39:19.946Z,63.40
2018-06-21T23:41:48.935Z,63.20
2018-06-21T23:46:46.023Z,63.50
2018-06-21T23:49:14.976Z,63.60
2018-06-21T23:56:42.921Z,63.60
2018-06-21T23:59:11.372Z,63.50
